sensor_id;sensor_type;location;lat;lon;timestamp;pressure;altitude;pressure_sealevel;temperature;humidity
57250;BME280;43102;52.014;-0.680;2023-04-30T00:00:00;101310;;;14.24;61.04
57250;BME280;43102;52.014;-0.680;2023-04-30T00:01:00;101310;;;14.24;61.04
57250;BME280;43102;52.014;-0.680;2023-04-30T00:02:00;101310;;;14.24;61.04
57250;BME280;43102;52.014;-0.680;2023-04-30T00:03:00;101310;;;14.24;61.04
57250;BME280;43102;52.014;-0.680;2023-04-30T00:04:00;101316;;;14.24;61.12
57250;BME280;43102;52.014;-0.680;2023-04-30T00:05:00;101316;;;14.24;61.12
57250;BME280;43102;52.014;-0.680;2023-04-30T00:06:00;101316;;;14.24;61.12
57250;BME280;43102;52.014;-0.680;2023-04-30T00:07:00;101316;;;14.24;61.12
57250;BME280;43102;52.014;-0.680;2023-04-30T00:08:00;101316;;;14.24;61.12
57250;BME280;43102;52.014;-0.680;2023-04-30T00:09:00;101317;;;14.21;61.33
57250;BME280;43102;52.014;-0.680;2023-04-30T00:10:00;101317;;;14.21;61.33
57250;BME280;43102;52.014;-0.680;2023-04-30T00:11:00;101317;;;14.21;61.33
57250;BME280;43102;52.014;-0.680;2023-04-30T00:12:00;101317;;;14.21;61.33
57250;BME280;43102;52.014;-0.680;2023-04-30T00:13:00;101317;;;14.21;61.33
57250;BME280;43102;52.014;-0.680;2023-04-30T00:14:00;101312;;;14.16;61.58
57250;BME280;43102;52.014;-0.680;2023-04-30T00:15:00;101312;;;14.16;61.58
57250;BME280;43102;52.014;-0.680;2023-04-30T00:16:00;101312;;;14.16;61.58
57250;BME280;43102;52.014;-0.680;2023-04-30T00:17:00;101312;;;14.16;61.58
57250;BME280;43102;52.014;-0.680;2023-04-30T00:18:00;101312;;;14.16;61.58
57250;BME280;43102;52.014;-0.680;2023-04-30T00:19:00;101315;;;14.10;61.75
57250;BME280;43102;52.014;-0.680;2023-04-30T00:20:00;101315;;;14.10;61.75
57250;BME280;43102;52.014;-0.680;2023-04-30T00:21:00;101315;;;14.10;61.75
57250;BME280;43102;52.014;-0.680;2023-04-30T00:22:00;101315;;;14.10;61.75
57250;BME280;43102;52.014;-0.680;2023-04-30T00:23:00;101315;;;14.10;61.75
57250;BME280;43102;52.014;-0.680;2023-04-30T00:24:00;101309;;;14.09;61.80
57250;BME280;43102;52.014;-0.680;2023-04-30T00:25:00;101309;;;14.09;61.80
57250;BME280;43102;52.014;-0.680;2023-04-30T00:26:00;101309;;;14.09;61.80
57250;BME280;43102;52.014;-0.680;2023-04-30T00:27:00;101309;;;14.09;61.80
57250;BME280;43102;52.014;-0.680;2023-04-30T00:28:00;101309;;;14.09;61.80
57250;BME280;43102;52.014;-0.680;2023-04-30T00:29:00;101320;;;14.08;62.12
57250;BME280;43102;52.014;-0.680;2023-04-30T00:30:00;101320;;;14.08;62.12
57250;BME280;43102;52.014;-0.680;2023-04-30T00:31:00;101320;;;14.08;62.12
57250;BME280;43102;52.014;-0.680;2023-04-30T00:32:00;101320;;;14.08;62.12
57250;BME280;43102;52.014;-0.680;2023-04-30T00:33:00;101320;;;14.08;62.12
57250;BME280;43102;52.014;-0.680;2023-04-30T00:34:00;101314;;;13.98;62.24
57250;BME280;43102;52.014;-0.680;2023-04-30T00:35:00;101314;;;13.98;62.24
57250;BME280;43102;52.014;-0.680;2023-04-30T00:36:00;101314;;;13.98;62.24
57250;BME280;43102;52.014;-0.680;2023-04-30T00:37:00;101314;;;13.98;62.24
57250;BME280;43102;52.014;-0.680;2023-04-30T00:38:00;101314;;;13.98;62.24
57250;BME280;43102;52.014;-0.680;2023-04-30T00:39:00;101313;;;13.91;62.47
57250;BME280;43102;52.014;-0.680;2023-04-30T00:40:00;101313;;;13.91;62.47
57250;BME280;43102;52.014;-0.680;2023-04-30T00:41:00;101313;;;13.91;62.47
57250;BME280;43102;52.014;-0.680;2023-04-30T00:42:00;101313;;;13.91;62.47
57250;BME280;43102;52.014;-0.680;2023-04-30T00:43:00;101313;;;13.91;62.47
57250;BME280;43102;52.014;-0.680;2023-04-30T00:44:00;101310;;;13.82;62.83
57250;BME280;43102;52.014;-0.680;2023-04-30T00:45:00;101310;;;13.82;62.83
57250;BME280;43102;52.014;-0.680;2023-04-30T00:46:00;101310;;;13.82;62.83
57250;BME280;43102;52.014;-0.680;2023-04-30T00:47:00;101310;;;13.82;62.83
57250;BME280;43102;52.014;-0.680;2023-04-30T00:48:00;101310;;;13.82;62.83
57250;BME280;43102;52.014;-0.680;2023-04-30T00:49:00;101312;;;13.75;63.15
57250;BME280;43102;52.014;-0.680;2023-04-30T00:50:00;101312;;;13.75;63.15
57250;BME280;43102;52.014;-0.680;2023-04-30T00:51:01;101312;;;13.75;63.15
57250;BME280;43102;52.014;-0.680;2023-04-30T00:52:00;101312;;;13.75;63.15
57250;BME280;43102;52.014;-0.680;2023-04-30T00:53:00;101312;;;13.75;63.15
57250;BME280;43102;52.014;-0.680;2023-04-30T00:54:00;101307;;;13.73;63.28
57250;BME280;43102;52.014;-0.680;2023-04-30T00:55:00;101307;;;13.73;63.28
57250;BME280;43102;52.014;-0.680;2023-04-30T00:56:00;101307;;;13.73;63.28
57250;BME280;43102;52.014;-0.680;2023-04-30T00:57:00;101307;;;13.73;63.28
57250;BME280;43102;52.014;-0.680;2023-04-30T00:58:00;101307;;;13.73;63.28
57250;BME280;43102;52.014;-0.680;2023-04-30T00:59:00;101311;;;13.62;63.67
57250;BME280;43102;52.014;-0.680;2023-04-30T01:00:00;101311;;;13.62;63.67
57250;BME280;43102;52.014;-0.680;2023-04-30T01:01:00;101311;;;13.62;63.67
57250;BME280;43102;52.014;-0.680;2023-04-30T01:02:00;101311;;;13.62;63.67
57250;BME280;43102;52.014;-0.680;2023-04-30T01:03:00;101311;;;13.62;63.67
57250;BME280;43102;52.014;-0.680;2023-04-30T01:04:00;101315;;;13.53;63.82
57250;BME280;43102;52.014;-0.680;2023-04-30T01:05:00;101315;;;13.53;63.82
57250;BME280;43102;52.014;-0.680;2023-04-30T01:06:00;101315;;;13.53;63.82
57250;BME280;43102;52.014;-0.680;2023-04-30T01:07:00;101315;;;13.53;63.82
57250;BME280;43102;52.014;-0.680;2023-04-30T01:08:00;101315;;;13.53;63.82
57250;BME280;43102;52.014;-0.680;2023-04-30T01:09:00;101313;;;13.52;63.96
57250;BME280;43102;52.014;-0.680;2023-04-30T01:10:00;101313;;;13.52;63.96
57250;BME280;43102;52.014;-0.680;2023-04-30T01:12:09;101313;;;13.52;63.96
57250;BME280;43102;52.014;-0.680;2023-04-30T01:13:02;101313;;;13.52;63.96
57250;BME280;43102;52.014;-0.680;2023-04-30T01:14:06;101307;;;13.44;64.10
57250;BME280;43102;52.014;-0.680;2023-04-30T01:15:01;101307;;;13.44;64.10
57250;BME280;43102;52.014;-0.680;2023-04-30T01:16:05;101307;;;13.44;64.10
57250;BME280;43102;52.014;-0.680;2023-04-30T01:17:08;101307;;;13.44;64.10
57250;BME280;43102;52.014;-0.680;2023-04-30T01:19:03;101309;;;13.38;64.43
57250;BME280;43102;52.014;-0.680;2023-04-30T01:20:00;101309;;;13.38;64.43
57250;BME280;43102;52.014;-0.680;2023-04-30T01:21:01;101309;;;13.38;64.43
57250;BME280;43102;52.014;-0.680;2023-04-30T01:22:00;101309;;;13.38;64.43
57250;BME280;43102;52.014;-0.680;2023-04-30T01:23:06;101309;;;13.38;64.43
57250;BME280;43102;52.014;-0.680;2023-04-30T01:28:04;101311;;;13.36;64.37
57250;BME280;43102;52.014;-0.680;2023-04-30T01:29:01;101304;;;13.31;64.68
57250;BME280;43102;52.014;-0.680;2023-04-30T01:30:00;101304;;;13.31;64.68
57250;BME280;43102;52.014;-0.680;2023-04-30T01:31:00;101304;;;13.31;64.68
57250;BME280;43102;52.014;-0.680;2023-04-30T01:32:00;101304;;;13.31;64.68
57250;BME280;43102;52.014;-0.680;2023-04-30T01:33:00;101304;;;13.31;64.68
57250;BME280;43102;52.014;-0.680;2023-04-30T01:34:00;101308;;;13.26;64.76
57250;BME280;43102;52.014;-0.680;2023-04-30T01:35:00;101308;;;13.26;64.76
57250;BME280;43102;52.014;-0.680;2023-04-30T01:36:20;101308;;;13.26;64.76
57250;BME280;43102;52.014;-0.680;2023-04-30T01:41:03;101302;;;13.25;64.89
57250;BME280;43102;52.014;-0.680;2023-04-30T01:42:04;101302;;;13.25;64.89
57250;BME280;43102;52.014;-0.680;2023-04-30T01:45:05;101298;;;13.25;64.89
57250;BME280;43102;52.014;-0.680;2023-04-30T01:49:11;101297;;;13.21;64.96
57250;BME280;43102;52.014;-0.680;2023-04-30T01:53:01;101297;;;13.21;64.96
57250;BME280;43102;52.014;-0.680;2023-04-30T01:54:02;101294;;;13.19;65.09
57250;BME280;43102;52.014;-0.680;2023-04-30T01:55:03;101294;;;13.19;65.09
57250;BME280;43102;52.014;-0.680;2023-04-30T01:56:01;101294;;;13.19;65.09
57250;BME280;43102;52.014;-0.680;2023-04-30T01:57:09;101294;;;13.19;65.09
57250;BME280;43102;52.014;-0.680;2023-04-30T01:58:01;101294;;;13.19;65.09
57250;BME280;43102;52.014;-0.680;2023-04-30T01:59:00;101297;;;13.19;65.39
57250;BME280;43102;52.014;-0.680;2023-04-30T02:00:00;101297;;;13.19;65.39
57250;BME280;43102;52.014;-0.680;2023-04-30T02:01:00;101297;;;13.19;65.39
57250;BME280;43102;52.014;-0.680;2023-04-30T02:02:00;101297;;;13.19;65.39
57250;BME280;43102;52.014;-0.680;2023-04-30T02:03:00;101297;;;13.19;65.39
57250;BME280;43102;52.014;-0.680;2023-04-30T02:04:00;101299;;;13.16;65.40
57250;BME280;43102;52.014;-0.680;2023-04-30T02:05:00;101299;;;13.16;65.40
57250;BME280;43102;52.014;-0.680;2023-04-30T02:06:00;101299;;;13.16;65.40
57250;BME280;43102;52.014;-0.680;2023-04-30T02:07:00;101299;;;13.16;65.40
57250;BME280;43102;52.014;-0.680;2023-04-30T02:08:00;101299;;;13.16;65.40
57250;BME280;43102;52.014;-0.680;2023-04-30T02:09:00;101296;;;13.18;65.42
57250;BME280;43102;52.014;-0.680;2023-04-30T02:10:00;101296;;;13.18;65.42
57250;BME280;43102;52.014;-0.680;2023-04-30T02:11:00;101296;;;13.18;65.42
57250;BME280;43102;52.014;-0.680;2023-04-30T02:12:00;101296;;;13.18;65.42
57250;BME280;43102;52.014;-0.680;2023-04-30T02:13:00;101296;;;13.18;65.42
57250;BME280;43102;52.014;-0.680;2023-04-30T02:14:00;101295;;;13.18;65.42
57250;BME280;43102;52.014;-0.680;2023-04-30T02:15:01;101295;;;13.18;65.42
57250;BME280;43102;52.014;-0.680;2023-04-30T02:16:00;101295;;;13.18;65.42
57250;BME280;43102;52.014;-0.680;2023-04-30T02:17:00;101295;;;13.18;65.42
57250;BME280;43102;52.014;-0.680;2023-04-30T02:18:00;101295;;;13.18;65.42
57250;BME280;43102;52.014;-0.680;2023-04-30T02:19:00;101298;;;13.17;65.35
57250;BME280;43102;52.014;-0.680;2023-04-30T02:20:00;101298;;;13.17;65.35
57250;BME280;43102;52.014;-0.680;2023-04-30T02:21:00;101298;;;13.17;65.35
57250;BME280;43102;52.014;-0.680;2023-04-30T02:22:00;101298;;;13.17;65.35
57250;BME280;43102;52.014;-0.680;2023-04-30T02:23:00;101298;;;13.17;65.35
57250;BME280;43102;52.014;-0.680;2023-04-30T02:24:00;101300;;;13.18;65.33
57250;BME280;43102;52.014;-0.680;2023-04-30T02:25:00;101300;;;13.18;65.33
57250;BME280;43102;52.014;-0.680;2023-04-30T02:26:00;101300;;;13.18;65.33
57250;BME280;43102;52.014;-0.680;2023-04-30T02:27:00;101300;;;13.18;65.33
57250;BME280;43102;52.014;-0.680;2023-04-30T02:28:00;101300;;;13.18;65.33
57250;BME280;43102;52.014;-0.680;2023-04-30T02:29:00;101294;;;13.10;65.69
57250;BME280;43102;52.014;-0.680;2023-04-30T02:30:00;101294;;;13.10;65.69
57250;BME280;43102;52.014;-0.680;2023-04-30T02:31:00;101294;;;13.10;65.69
57250;BME280;43102;52.014;-0.680;2023-04-30T02:32:00;101294;;;13.10;65.69
57250;BME280;43102;52.014;-0.680;2023-04-30T02:33:00;101294;;;13.10;65.69
57250;BME280;43102;52.014;-0.680;2023-04-30T02:34:00;101295;;;13.09;65.64
57250;BME280;43102;52.014;-0.680;2023-04-30T02:35:00;101295;;;13.09;65.64
57250;BME280;43102;52.014;-0.680;2023-04-30T02:36:00;101295;;;13.09;65.64
57250;BME280;43102;52.014;-0.680;2023-04-30T02:37:00;101295;;;13.09;65.64
57250;BME280;43102;52.014;-0.680;2023-04-30T02:38:00;101295;;;13.09;65.64
57250;BME280;43102;52.014;-0.680;2023-04-30T02:39:00;101295;;;13.10;65.65
57250;BME280;43102;52.014;-0.680;2023-04-30T02:40:00;101295;;;13.10;65.65
57250;BME280;43102;52.014;-0.680;2023-04-30T02:41:00;101295;;;13.10;65.65
57250;BME280;43102;52.014;-0.680;2023-04-30T02:42:00;101295;;;13.10;65.65
57250;BME280;43102;52.014;-0.680;2023-04-30T02:43:00;101295;;;13.10;65.65
57250;BME280;43102;52.014;-0.680;2023-04-30T02:44:00;101290;;;13.11;65.57
57250;BME280;43102;52.014;-0.680;2023-04-30T02:45:00;101290;;;13.11;65.57
57250;BME280;43102;52.014;-0.680;2023-04-30T02:46:00;101290;;;13.11;65.57
57250;BME280;43102;52.014;-0.680;2023-04-30T02:47:00;101290;;;13.11;65.57
57250;BME280;43102;52.014;-0.680;2023-04-30T02:48:00;101290;;;13.11;65.57
57250;BME280;43102;52.014;-0.680;2023-04-30T02:49:00;101284;;;13.09;65.51
57250;BME280;43102;52.014;-0.680;2023-04-30T02:50:00;101284;;;13.09;65.51
57250;BME280;43102;52.014;-0.680;2023-04-30T02:51:00;101284;;;13.09;65.51
57250;BME280;43102;52.014;-0.680;2023-04-30T02:52:00;101284;;;13.09;65.51
57250;BME280;43102;52.014;-0.680;2023-04-30T02:53:00;101284;;;13.09;65.51
57250;BME280;43102;52.014;-0.680;2023-04-30T02:54:00;101282;;;13.09;65.24
57250;BME280;43102;52.014;-0.680;2023-04-30T02:55:00;101282;;;13.09;65.24
57250;BME280;43102;52.014;-0.680;2023-04-30T02:56:00;101282;;;13.09;65.24
57250;BME280;43102;52.014;-0.680;2023-04-30T02:57:00;101282;;;13.09;65.24
57250;BME280;43102;52.014;-0.680;2023-04-30T02:58:00;101282;;;13.09;65.24
57250;BME280;43102;52.014;-0.680;2023-04-30T02:59:00;101283;;;13.09;65.33
57250;BME280;43102;52.014;-0.680;2023-04-30T03:00:00;101283;;;13.09;65.33
57250;BME280;43102;52.014;-0.680;2023-04-30T03:01:00;101283;;;13.09;65.33
57250;BME280;43102;52.014;-0.680;2023-04-30T03:02:00;101283;;;13.09;65.33
57250;BME280;43102;52.014;-0.680;2023-04-30T03:03:00;101283;;;13.09;65.33
57250;BME280;43102;52.014;-0.680;2023-04-30T03:04:00;101286;;;13.05;65.16
57250;BME280;43102;52.014;-0.680;2023-04-30T03:05:00;101286;;;13.05;65.16
57250;BME280;43102;52.014;-0.680;2023-04-30T03:06:00;101286;;;13.05;65.16
57250;BME280;43102;52.014;-0.680;2023-04-30T03:07:00;101286;;;13.05;65.16
57250;BME280;43102;52.014;-0.680;2023-04-30T03:08:00;101286;;;13.05;65.16
57250;BME280;43102;52.014;-0.680;2023-04-30T03:09:00;101282;;;12.98;65.18
57250;BME280;43102;52.014;-0.680;2023-04-30T03:10:00;101282;;;12.98;65.18
57250;BME280;43102;52.014;-0.680;2023-04-30T03:11:00;101282;;;12.98;65.18
57250;BME280;43102;52.014;-0.680;2023-04-30T03:12:00;101282;;;12.98;65.18
57250;BME280;43102;52.014;-0.680;2023-04-30T03:13:00;101282;;;12.98;65.18
57250;BME280;43102;52.014;-0.680;2023-04-30T03:14:00;101283;;;12.95;64.92
57250;BME280;43102;52.014;-0.680;2023-04-30T03:15:00;101283;;;12.95;64.92
57250;BME280;43102;52.014;-0.680;2023-04-30T03:16:00;101283;;;12.95;64.92
57250;BME280;43102;52.014;-0.680;2023-04-30T03:17:00;101283;;;12.95;64.92
57250;BME280;43102;52.014;-0.680;2023-04-30T03:18:00;101283;;;12.95;64.92
57250;BME280;43102;52.014;-0.680;2023-04-30T03:19:00;101287;;;12.84;64.67
57250;BME280;43102;52.014;-0.680;2023-04-30T03:20:00;101287;;;12.84;64.67
57250;BME280;43102;52.014;-0.680;2023-04-30T03:21:00;101287;;;12.84;64.67
57250;BME280;43102;52.014;-0.680;2023-04-30T03:22:00;101287;;;12.84;64.67
57250;BME280;43102;52.014;-0.680;2023-04-30T03:23:00;101287;;;12.84;64.67
57250;BME280;43102;52.014;-0.680;2023-04-30T03:24:00;101285;;;12.75;64.80
57250;BME280;43102;52.014;-0.680;2023-04-30T03:25:00;101285;;;12.75;64.80
57250;BME280;43102;52.014;-0.680;2023-04-30T03:26:00;101285;;;12.75;64.80
57250;BME280;43102;52.014;-0.680;2023-04-30T03:27:00;101285;;;12.75;64.80
57250;BME280;43102;52.014;-0.680;2023-04-30T03:28:00;101285;;;12.75;64.80
57250;BME280;43102;52.014;-0.680;2023-04-30T03:29:00;101282;;;12.74;64.94
57250;BME280;43102;52.014;-0.680;2023-04-30T03:30:00;101282;;;12.74;64.94
57250;BME280;43102;52.014;-0.680;2023-04-30T03:31:00;101282;;;12.74;64.94
57250;BME280;43102;52.014;-0.680;2023-04-30T03:32:00;101282;;;12.74;64.94
57250;BME280;43102;52.014;-0.680;2023-04-30T03:33:00;101282;;;12.74;64.94
57250;BME280;43102;52.014;-0.680;2023-04-30T03:34:00;101282;;;12.67;64.92
57250;BME280;43102;52.014;-0.680;2023-04-30T03:35:00;101282;;;12.67;64.92
57250;BME280;43102;52.014;-0.680;2023-04-30T03:36:00;101282;;;12.67;64.92
57250;BME280;43102;52.014;-0.680;2023-04-30T03:37:00;101282;;;12.67;64.92
57250;BME280;43102;52.014;-0.680;2023-04-30T03:38:00;101282;;;12.67;64.92
57250;BME280;43102;52.014;-0.680;2023-04-30T03:39:00;101280;;;12.61;64.98
57250;BME280;43102;52.014;-0.680;2023-04-30T03:40:00;101280;;;12.61;64.98
57250;BME280;43102;52.014;-0.680;2023-04-30T03:41:00;101280;;;12.61;64.98
57250;BME280;43102;52.014;-0.680;2023-04-30T03:42:00;101280;;;12.61;64.98
57250;BME280;43102;52.014;-0.680;2023-04-30T03:43:00;101280;;;12.61;64.98
57250;BME280;43102;52.014;-0.680;2023-04-30T03:44:00;101285;;;12.54;65.03
57250;BME280;43102;52.014;-0.680;2023-04-30T03:45:00;101285;;;12.54;65.03
57250;BME280;43102;52.014;-0.680;2023-04-30T03:46:00;101285;;;12.54;65.03
57250;BME280;43102;52.014;-0.680;2023-04-30T03:47:00;101285;;;12.54;65.03
57250;BME280;43102;52.014;-0.680;2023-04-30T03:48:00;101285;;;12.54;65.03
57250;BME280;43102;52.014;-0.680;2023-04-30T03:49:00;101281;;;12.49;64.92
57250;BME280;43102;52.014;-0.680;2023-04-30T03:50:00;101281;;;12.49;64.92
57250;BME280;43102;52.014;-0.680;2023-04-30T03:51:00;101281;;;12.49;64.92
57250;BME280;43102;52.014;-0.680;2023-04-30T03:52:00;101281;;;12.49;64.92
57250;BME280;43102;52.014;-0.680;2023-04-30T03:53:00;101281;;;12.49;64.92
57250;BME280;43102;52.014;-0.680;2023-04-30T03:54:00;101283;;;12.40;65.11
57250;BME280;43102;52.014;-0.680;2023-04-30T03:55:00;101283;;;12.40;65.11
57250;BME280;43102;52.014;-0.680;2023-04-30T03:56:00;101283;;;12.40;65.11
57250;BME280;43102;52.014;-0.680;2023-04-30T03:57:00;101283;;;12.40;65.11
57250;BME280;43102;52.014;-0.680;2023-04-30T03:58:00;101283;;;12.40;65.11
57250;BME280;43102;52.014;-0.680;2023-04-30T03:59:00;101279;;;12.33;65.28
57250;BME280;43102;52.014;-0.680;2023-04-30T04:00:00;101279;;;12.33;65.28
57250;BME280;43102;52.014;-0.680;2023-04-30T04:01:00;101279;;;12.33;65.28
57250;BME280;43102;52.014;-0.680;2023-04-30T04:02:00;101279;;;12.33;65.28
57250;BME280;43102;52.014;-0.680;2023-04-30T04:03:00;101279;;;12.33;65.28
57250;BME280;43102;52.014;-0.680;2023-04-30T04:04:00;101287;;;12.23;65.42
57250;BME280;43102;52.014;-0.680;2023-04-30T04:05:00;101287;;;12.23;65.42
57250;BME280;43102;52.014;-0.680;2023-04-30T04:06:00;101287;;;12.23;65.42
57250;BME280;43102;52.014;-0.680;2023-04-30T04:07:00;101287;;;12.23;65.42
57250;BME280;43102;52.014;-0.680;2023-04-30T04:08:00;101287;;;12.23;65.42
57250;BME280;43102;52.014;-0.680;2023-04-30T04:09:00;101285;;;12.12;65.48
57250;BME280;43102;52.014;-0.680;2023-04-30T04:10:00;101285;;;12.12;65.48
57250;BME280;43102;52.014;-0.680;2023-04-30T04:11:00;101285;;;12.12;65.48
57250;BME280;43102;52.014;-0.680;2023-04-30T04:12:00;101285;;;12.12;65.48
57250;BME280;43102;52.014;-0.680;2023-04-30T04:13:00;101285;;;12.12;65.48
57250;BME280;43102;52.014;-0.680;2023-04-30T04:14:00;101285;;;12.03;65.66
57250;BME280;43102;52.014;-0.680;2023-04-30T04:15:00;101285;;;12.03;65.66
57250;BME280;43102;52.014;-0.680;2023-04-30T04:16:00;101285;;;12.03;65.66
57250;BME280;43102;52.014;-0.680;2023-04-30T04:17:00;101285;;;12.03;65.66
57250;BME280;43102;52.014;-0.680;2023-04-30T04:18:00;101285;;;12.03;65.66
57250;BME280;43102;52.014;-0.680;2023-04-30T04:19:00;101282;;;11.94;65.85
57250;BME280;43102;52.014;-0.680;2023-04-30T04:20:00;101282;;;11.94;65.85
57250;BME280;43102;52.014;-0.680;2023-04-30T04:21:00;101282;;;11.94;65.85
57250;BME280;43102;52.014;-0.680;2023-04-30T04:22:00;101282;;;11.94;65.85
57250;BME280;43102;52.014;-0.680;2023-04-30T04:23:00;101282;;;11.94;65.85
57250;BME280;43102;52.014;-0.680;2023-04-30T04:24:00;101277;;;11.86;65.97
57250;BME280;43102;52.014;-0.680;2023-04-30T04:25:00;101277;;;11.86;65.97
57250;BME280;43102;52.014;-0.680;2023-04-30T04:26:00;101277;;;11.86;65.97
57250;BME280;43102;52.014;-0.680;2023-04-30T04:27:00;101277;;;11.86;65.97
57250;BME280;43102;52.014;-0.680;2023-04-30T04:28:00;101277;;;11.86;65.97
57250;BME280;43102;52.014;-0.680;2023-04-30T04:29:00;101284;;;11.78;66.16
57250;BME280;43102;52.014;-0.680;2023-04-30T04:30:01;101284;;;11.78;66.16
57250;BME280;43102;52.014;-0.680;2023-04-30T04:31:00;101284;;;11.78;66.16
57250;BME280;43102;52.014;-0.680;2023-04-30T04:32:00;101284;;;11.78;66.16
57250;BME280;43102;52.014;-0.680;2023-04-30T04:33:00;101284;;;11.78;66.16
57250;BME280;43102;52.014;-0.680;2023-04-30T04:34:01;101281;;;11.74;66.23
57250;BME280;43102;52.014;-0.680;2023-04-30T04:35:00;101281;;;11.74;66.23
57250;BME280;43102;52.014;-0.680;2023-04-30T04:36:00;101281;;;11.74;66.23
57250;BME280;43102;52.014;-0.680;2023-04-30T04:37:00;101281;;;11.74;66.23
57250;BME280;43102;52.014;-0.680;2023-04-30T04:38:00;101281;;;11.74;66.23
57250;BME280;43102;52.014;-0.680;2023-04-30T04:39:00;101285;;;11.74;66.15
57250;BME280;43102;52.014;-0.680;2023-04-30T04:40:00;101285;;;11.74;66.15
57250;BME280;43102;52.014;-0.680;2023-04-30T04:41:00;101285;;;11.74;66.15
57250;BME280;43102;52.014;-0.680;2023-04-30T04:42:00;101285;;;11.74;66.15
57250;BME280;43102;52.014;-0.680;2023-04-30T04:43:00;101285;;;11.74;66.15
57250;BME280;43102;52.014;-0.680;2023-04-30T04:44:00;101292;;;11.72;66.02
57250;BME280;43102;52.014;-0.680;2023-04-30T04:45:00;101292;;;11.72;66.02
57250;BME280;43102;52.014;-0.680;2023-04-30T04:46:00;101292;;;11.72;66.02
57250;BME280;43102;52.014;-0.680;2023-04-30T04:47:00;101292;;;11.72;66.02
57250;BME280;43102;52.014;-0.680;2023-04-30T04:48:00;101292;;;11.72;66.02
57250;BME280;43102;52.014;-0.680;2023-04-30T04:49:00;101296;;;11.70;65.98
57250;BME280;43102;52.014;-0.680;2023-04-30T04:50:00;101296;;;11.70;65.98
57250;BME280;43102;52.014;-0.680;2023-04-30T04:51:00;101296;;;11.70;65.98
57250;BME280;43102;52.014;-0.680;2023-04-30T04:52:00;101296;;;11.70;65.98
57250;BME280;43102;52.014;-0.680;2023-04-30T04:53:00;101296;;;11.70;65.98
57250;BME280;43102;52.014;-0.680;2023-04-30T04:54:00;101295;;;11.64;66.03
57250;BME280;43102;52.014;-0.680;2023-04-30T04:55:00;101295;;;11.64;66.03
57250;BME280;43102;52.014;-0.680;2023-04-30T04:56:00;101295;;;11.64;66.03
57250;BME280;43102;52.014;-0.680;2023-04-30T04:57:00;101295;;;11.64;66.03
57250;BME280;43102;52.014;-0.680;2023-04-30T04:58:00;101295;;;11.64;66.03
57250;BME280;43102;52.014;-0.680;2023-04-30T04:59:00;101294;;;11.61;66.13
57250;BME280;43102;52.014;-0.680;2023-04-30T05:00:00;101294;;;11.61;66.13
57250;BME280;43102;52.014;-0.680;2023-04-30T05:01:00;101294;;;11.61;66.13
57250;BME280;43102;52.014;-0.680;2023-04-30T05:02:00;101294;;;11.61;66.13
57250;BME280;43102;52.014;-0.680;2023-04-30T05:03:00;101294;;;11.61;66.13
57250;BME280;43102;52.014;-0.680;2023-04-30T05:04:00;101296;;;11.61;66.02
57250;BME280;43102;52.014;-0.680;2023-04-30T05:05:00;101296;;;11.61;66.02
57250;BME280;43102;52.014;-0.680;2023-04-30T05:06:00;101296;;;11.61;66.02
57250;BME280;43102;52.014;-0.680;2023-04-30T05:07:00;101296;;;11.61;66.02
57250;BME280;43102;52.014;-0.680;2023-04-30T05:08:00;101296;;;11.61;66.02
57250;BME280;43102;52.014;-0.680;2023-04-30T05:09:00;101295;;;11.65;65.99
57250;BME280;43102;52.014;-0.680;2023-04-30T05:10:00;101295;;;11.65;65.99
57250;BME280;43102;52.014;-0.680;2023-04-30T05:11:00;101295;;;11.65;65.99
57250;BME280;43102;52.014;-0.680;2023-04-30T05:12:00;101295;;;11.65;65.99
57250;BME280;43102;52.014;-0.680;2023-04-30T05:13:00;101295;;;11.65;65.99
57250;BME280;43102;52.014;-0.680;2023-04-30T05:14:00;101287;;;11.67;65.99
57250;BME280;43102;52.014;-0.680;2023-04-30T05:15:00;101287;;;11.67;65.99
57250;BME280;43102;52.014;-0.680;2023-04-30T05:16:00;101287;;;11.67;65.99
57250;BME280;43102;52.014;-0.680;2023-04-30T05:17:00;101287;;;11.67;65.99
57250;BME280;43102;52.014;-0.680;2023-04-30T05:18:00;101287;;;11.67;65.99
57250;BME280;43102;52.014;-0.680;2023-04-30T05:19:00;101292;;;11.70;65.94
57250;BME280;43102;52.014;-0.680;2023-04-30T05:20:00;101292;;;11.70;65.94
57250;BME280;43102;52.014;-0.680;2023-04-30T05:21:00;101292;;;11.70;65.94
57250;BME280;43102;52.014;-0.680;2023-04-30T05:22:00;101292;;;11.70;65.94
57250;BME280;43102;52.014;-0.680;2023-04-30T05:23:01;101292;;;11.70;65.94
57250;BME280;43102;52.014;-0.680;2023-04-30T05:24:00;101290;;;11.77;65.80
57250;BME280;43102;52.014;-0.680;2023-04-30T05:25:00;101290;;;11.77;65.80
57250;BME280;43102;52.014;-0.680;2023-04-30T05:26:00;101290;;;11.77;65.80
57250;BME280;43102;52.014;-0.680;2023-04-30T05:27:00;101290;;;11.77;65.80
57250;BME280;43102;52.014;-0.680;2023-04-30T05:28:00;101290;;;11.77;65.80
57250;BME280;43102;52.014;-0.680;2023-04-30T05:29:00;101297;;;11.83;66.03
57250;BME280;43102;52.014;-0.680;2023-04-30T05:30:00;101297;;;11.83;66.03
57250;BME280;43102;52.014;-0.680;2023-04-30T05:31:00;101297;;;11.83;66.03
57250;BME280;43102;52.014;-0.680;2023-04-30T05:32:00;101297;;;11.83;66.03
57250;BME280;43102;52.014;-0.680;2023-04-30T05:33:00;101297;;;11.83;66.03
57250;BME280;43102;52.014;-0.680;2023-04-30T05:34:00;101295;;;11.88;65.98
57250;BME280;43102;52.014;-0.680;2023-04-30T05:35:00;101295;;;11.88;65.98
57250;BME280;43102;52.014;-0.680;2023-04-30T05:36:00;101295;;;11.88;65.98
57250;BME280;43102;52.014;-0.680;2023-04-30T05:37:01;101295;;;11.88;65.98
57250;BME280;43102;52.014;-0.680;2023-04-30T05:38:00;101295;;;11.88;65.98
57250;BME280;43102;52.014;-0.680;2023-04-30T05:39:00;101302;;;11.99;66.05